Time;durP1;ratioP1;P1;durP2;ratioP2;P2;SDS_P1;SDS_P2;PMS_P1;PMS_P2;Temp;Humidity;BMP_temperature;BMP_pressure;BME280_temperature;BME280_humidity;BME280_pressure;Samples;Min_cycle;Max_cycle;Signal;HPM_P1;HPM_P2
2021/06/15 05:51:28;;;;;;;13.53;7.27;;;21.60;99.90;;;;;;5495510;23;20501;-49
2021/06/15 05:53:59;;;;;;;11.00;6.00;;;21.70;99.90;;;;;;4989782;28;20872;-53
2021/06/15 05:56:25;;;;;;;12.67;6.60;;;21.70;99.90;;;;;;4988118;28;20431;-49
2021/06/15 05:58:52;;;;;;;7.63;5.80;;;21.80;99.90;;;;;;4978799;28;20822;-48
2021/06/15 06:01:19;;;;;;;7.77;5.70;;;22.00;99.90;;;;;;4977351;28;20458;-50
2021/06/15 06:03:51;;;;;;;8.90;6.60;;;22.10;99.90;;;;;;4977473;28;20447;-48
2021/06/15 06:09:03;;;;;;;15.77;6.33;;;22.40;99.90;;;;;;4977089;28;20423;-51
2021/06/15 06:11:30;;;;;;;8.60;5.60;;;22.50;99.90;;;;;;4977337;28;20946;-48
2021/06/15 06:13:57;;;;;;;11.47;6.03;;;22.60;99.90;;;;;;4977108;28;20462;-50
2021/06/15 06:16:23;;;;;;;8.60;5.17;;;22.70;99.90;;;;;;4977157;28;20521;-51
2021/06/15 06:18:50;;;;;;;10.90;6.00;;;22.80;99.90;;;;;;4977268;28;20474;-50
2021/06/15 06:21:16;;;;;;;8.37;5.93;;;22.90;99.90;;;;;;4977812;28;20438;-50
2021/06/15 06:23:44;;;;;;;7.23;5.07;;;23.00;99.90;;;;;;4978178;28;20462;-52
2021/06/15 06:26:12;;;;;;;9.00;5.50;;;23.10;99.90;;;;;;4976758;28;20525;-51
2021/06/15 06:28:38;;;;;;;7.60;6.80;;;23.20;99.90;;;;;;4977093;28;20455;-51
2021/06/15 06:31:05;;;;;;;9.83;5.60;;;23.30;99.90;;;;;;4976636;28;20479;-51
2021/06/15 06:33:33;;;;;;;18.67;8.00;;;23.40;99.90;;;;;;4980161;28;20450;-50
2021/06/15 06:36:00;;;;;;;19.13;6.87;;;23.50;99.90;;;;;;4996104;28;20446;-51
2021/06/15 06:38:27;;;;;;;9.83;6.10;;;23.50;99.90;;;;;;4996352;28;20463;-52
2021/06/15 06:40:53;;;;;;;10.23;6.83;;;23.50;99.90;;;;;;4982011;28;20914;-49
2021/06/15 06:43:21;;;;;;;15.30;7.40;;;23.60;99.90;;;;;;4982788;28;20466;-52
2021/06/15 06:45:48;;;;;;;14.60;7.23;;;23.70;99.90;;;;;;4995837;28;20516;-52
2021/06/15 06:48:15;;;;;;;13.13;6.70;;;23.80;99.90;;;;;;4987042;28;20454;-51
2021/06/15 06:50:42;;;;;;;9.97;6.20;;;23.80;99.90;;;;;;4983679;28;20537;-52
2021/06/15 06:53:08;;;;;;;11.40;6.33;;;23.90;99.90;;;;;;4977710;28;20451;-54
2021/06/15 06:55:35;;;;;;;15.30;6.20;;;23.90;99.90;;;;;;4985273;28;20490;-50
2021/06/15 06:58:02;;;;;;;12.67;7.13;;;23.90;99.90;;;;;;4977658;28;20451;-54
2021/06/15 07:00:30;;;;;;;9.07;6.87;;;24.00;99.90;;;;;;4988604;28;20455;-53
2021/06/15 07:02:57;;;;;;;14.60;6.27;;;24.10;99.90;;;;;;4982882;28;20443;-52
2021/06/15 07:05:23;;;;;;;10.43;6.50;;;24.20;99.90;;;;;;4992727;28;21067;-55
2021/06/15 07:07:51;;;;;;;9.73;6.83;;;24.30;99.90;;;;;;4988242;28;20505;-51
2021/06/15 07:10:18;;;;;;;31.13;8.07;;;24.40;99.90;;;;;;4981441;28;20498;-53
2021/06/15 07:12:45;;;;;;;41.23;9.07;;;24.50;99.90;;;;;;4989035;28;20454;-50
2021/06/15 07:15:12;;;;;;;19.63;7.50;;;24.60;99.90;;;;;;4980061;28;20455;-56
2021/06/15 07:17:41;;;;;;;17.47;6.43;;;24.70;99.90;;;;;;4982378;28;20470;-53
2021/06/15 07:20:09;;;;;;;11.43;7.10;;;24.80;99.90;;;;;;4980608;28;20775;-55
2021/06/15 07:22:36;;;;;;;25.63;8.37;;;24.90;99.90;;;;;;4980480;28;20451;-53
2021/06/15 07:25:04;;;;;;;17.20;7.73;;;24.90;99.90;;;;;;4980485;28;20781;-54
2021/06/15 07:27:31;;;;;;;11.57;7.30;;;24.80;99.90;;;;;;4984113;28;20447;-52
2021/06/15 07:29:58;;;;;;;10.57;6.90;;;24.90;99.90;;;;;;4983919;28;20478;-50
2021/06/15 07:32:25;;;;;;;9.40;5.87;;;25.00;99.90;;;;;;4981092;28;20834;-51
2021/06/15 07:34:55;;;;;;;8.90;7.17;;;25.30;99.90;;;;;;4989761;28;20832;-50
2021/06/15 07:37:21;;;;;;;14.93;6.60;;;25.80;99.90;;;;;;4981355;28;20532;-55
2021/06/15 07:39:48;;;;;;;9.70;7.40;;;26.10;99.90;;;;;;4982273;28;20913;-51
2021/06/15 07:42:15;;;;;;;13.43;6.60;;;26.20;99.90;;;;;;4983272;28;20462;-53
2021/06/15 07:44:41;;;;;;;13.93;6.67;;;26.30;99.90;;;;;;4978190;28;20486;-55
2021/06/15 07:47:08;;;;;;;9.80;7.00;;;26.50;99.10;;;;;;4974332;28;20513;-50
2021/06/15 07:49:35;;;;;;;8.80;7.30;;;26.50;98.50;;;;;;4974335;28;20451;-56
2021/06/15 07:52:03;;;;;;;15.23;7.33;;;26.60;98.90;;;;;;4974088;28;20965;-52
2021/06/15 07:54:31;;;;;;;13.80;7.20;;;26.60;99.50;;;;;;4975172;28;20443;-52
2021/06/15 07:56:57;;;;;;;11.13;6.90;;;26.60;99.40;;;;;;4974802;28;20922;-52
2021/06/15 07:59:24;;;;;;;7.80;6.80;;;26.80;98.50;;;;;;4975026;28;20825;-51
2021/06/15 08:01:51;;;;;;;8.07;4.97;;;27.20;98.40;;;;;;4974949;28;20446;-54
2021/06/15 08:04:18;;;;;;;8.47;6.27;;;28.00;97.50;;;;;;4975297;28;20826;-50
2021/06/15 08:06:45;;;;;;;8.07;7.27;;;28.60;95.00;;;;;;4974919;28;20493;-53
2021/06/15 08:09:13;;;;;;;7.70;6.10;;;29.00;93.00;;;;;;4975152;28;20796;-52
2021/06/15 08:11:40;;;;;;;9.27;6.57;;;29.20;91.80;;;;;;4974733;28;20573;-52
2021/06/15 08:14:07;;;;;;;8.63;6.97;;;29.20;92.00;;;;;;4975067;28;20469;-51
2021/06/15 08:16:33;;;;;;;11.33;6.80;;;29.10;91.80;;;;;;4974748;28;20972;-52
2021/06/15 08:19:00;;;;;;;14.03;6.87;;;28.60;91.60;;;;;;4974721;28;20490;-49
2021/06/15 08:21:27;;;;;;;9.90;7.30;;;28.10;91.80;;;;;;4974958;28;20505;-53
2021/06/15 08:23:54;;;;;;;7.57;5.97;;;27.80;91.90;;;;;;4974705;28;20480;-56
2021/06/15 08:26:22;;;;;;;10.33;8.13;;;27.50;92.40;;;;;;4974911;28;20486;-48
2021/06/15 08:28:49;;;;;;;7.10;6.40;;;27.20;94.10;;;;;;4974685;28;20454;-49
2021/06/15 08:31:15;;;;;;;14.90;9.60;;;27.10;93.70;;;;;;4974844;28;20553;-49
2021/06/15 08:33:42;;;;;;;13.50;7.63;;;26.90;94.10;;;;;;4974753;28;20770;-51
2021/06/15 08:36:09;;;;;;;8.03;7.23;;;26.80;94.70;;;;;;4974625;28;20435;-52
2021/06/15 08:38:37;;;;;;;14.27;6.50;;;26.60;95.70;;;;;;4974789;28;20447;-50
2021/06/15 08:41:04;;;;;;;13.40;8.20;;;26.50;96.20;;;;;;4974597;28;20475;-51
2021/06/15 08:43:32;;;;;;;10.40;7.50;;;26.40;96.40;;;;;;4974530;28;20454;-50
2021/06/15 08:46:00;;;;;;;8.77;6.47;;;26.20;97.00;;;;;;4974784;28;20542;-53
2021/06/15 08:48:26;;;;;;;10.93;7.60;;;26.20;97.30;;;;;;4974776;28;20462;-54
2021/06/15 08:50:53;;;;;;;8.97;6.20;;;26.20;97.00;;;;;;4974529;28;20498;-52
2021/06/15 08:53:20;;;;;;;11.47;6.10;;;26.20;97.50;;;;;;4974716;28;20802;-54
2021/06/15 08:55:54;;;;;;;11.53;6.77;;;26.20;98.00;;;;;;4974732;28;20450;-47
2021/06/15 08:58:41;;;;;;;10.70;6.60;;;26.30;98.30;;;;;;4978672;28;20786;-49
2021/06/15 09:01:11;;;;;;;8.87;6.53;;;26.50;97.60;;;;;;4978623;28;20835;-51
2021/06/15 09:03:38;;;;;;;12.73;7.40;;;26.60;97.40;;;;;;4978674;28;20451;-53
2021/06/15 09:06:05;;;;;;;8.30;6.60;;;26.90;96.90;;;;;;4978330;28;20466;-50
2021/06/15 09:08:32;;;;;;;8.00;6.47;;;27.00;96.30;;;;;;4978467;28;20462;-53
2021/06/15 09:11:06;;;;;;;8.70;7.00;;;27.10;96.30;;;;;;4978316;28;20478;-53
2021/06/15 09:13:37;;;;;;;6.10;5.50;;;27.30;95.30;;;;;;4978218;28;20454;-51
2021/06/15 09:16:19;;;;;;;6.57;5.73;;;27.70;95.10;;;;;;4978269;28;20858;-53
2021/06/15 09:18:47;;;;;;;6.97;5.97;;;28.20;94.10;;;;;;4977925;28;20505;-51
2021/06/15 09:21:41;;;;;;;7.80;6.70;;;28.50;93.30;;;;;;4978159;28;20453;-51
2021/06/15 09:24:10;;;;;;;6.10;5.50;;;28.60;92.80;;;;;;4977958;28;20497;-50
2021/06/15 09:27:01;;;;;;;7.10;5.90;;;28.50;92.00;;;;;;4977878;28;20541;-50
2021/06/15 09:29:43;;;;;;;6.03;5.43;;;28.30;92.60;;;;;;4977786;28;20450;-48
2021/06/15 09:32:12;;;;;;;5.80;5.30;;;28.20;92.60;;;;;;4978024;28;20486;-52
2021/06/15 09:34:50;;;;;;;6.93;5.50;;;28.10;93.20;;;;;;4977727;28;20460;-51
2021/06/15 09:37:26;;;;;;;5.60;5.20;;;28.00;93.20;;;;;;4977748;28;20446;-54
2021/06/15 09:39:53;;;;;;;9.43;5.33;;;28.00;93.30;;;;;;4977951;28;20454;-53
2021/06/15 09:42:20;;;;;;;11.03;7.07;;;27.80;93.60;;;;;;4977703;28;20478;-54
2021/06/15 09:44:48;;;;;;;7.77;6.10;;;27.70;93.90;;;;;;4977660;28;20473;-54
2021/06/15 09:47:15;;;;;;;6.30;5.03;;;27.70;93.80;;;;;;4977595;28;20462;-50
2021/06/15 09:49:43;;;;;;;9.53;5.80;;;27.60;93.70;;;;;;4977586;28;20466;-52
2021/06/15 09:52:19;;;;;;;7.00;6.30;;;27.40;93.60;;;;;;4976898;28;20497;-50
2021/06/15 09:54:47;;;;;;;6.90;5.43;;;27.40;94.10;;;;;;4977492;28;20918;-47
2021/06/15 09:57:21;;;;;;;7.50;6.00;;;27.50;94.30;;;;;;4977365;28;20459;-51
2021/06/15 10:00:11;;;;;;;8.40;5.10;;;27.70;93.60;;;;;;4976964;28;20463;-50
2021/06/15 10:02:47;;;;;;;10.20;5.90;;;27.90;93.40;;;;;;4977213;28;20474;-52
2021/06/15 10:05:26;;;;;;;5.47;4.97;;;28.10;93.30;;;;;;4977149;28;20434;-52
2021/06/15 10:07:54;;;;;;;5.80;5.20;;;28.10;93.10;;;;;;4976333;28;20459;-52
2021/06/15 10:10:23;;;;;;;7.60;6.20;;;28.00;92.90;;;;;;4977226;28;20439;-61
2021/06/15 10:12:51;;;;;;;7.37;5.37;;;27.80;93.80;;;;;;4976903;28;20451;-54
2021/06/15 10:15:20;;;;;;;12.77;4.70;;;27.60;93.90;;;;;;4977167;28;20461;-52
2021/06/15 10:17:47;;;;;;;8.53;6.10;;;27.30;94.20;;;;;;4977190;28;20463;-52
2021/06/15 10:20:16;;;;;;;13.67;6.20;;;27.30;94.90;;;;;;4976869;28;20447;-51
2021/06/15 10:22:43;;;;;;;9.40;5.90;;;27.10;95.50;;;;;;4977106;28;20530;-54
2021/06/15 10:25:11;;;;;;;8.40;6.10;;;27.00;96.00;;;;;;4976782;28;20486;-50
2021/06/15 10:27:39;;;;;;;5.20;4.70;;;26.90;96.30;;;;;;4976733;28;20455;-54
2021/06/15 10:30:07;;;;;;;5.87;5.00;;;26.80;96.70;;;;;;4976702;28;20451;-49
2021/06/15 10:32:46;;;;;;;7.07;6.40;;;26.80;96.80;;;;;;4976704;28;20487;-53
2021/06/15 10:35:13;;;;;;;11.20;9.37;;;26.70;96.80;;;;;;4976885;28;20537;-51
2021/06/15 10:37:47;;;;;;;10.37;6.93;;;26.70;97.40;;;;;;4976566;28;20461;-51
2021/06/15 10:40:35;;;;;;;6.67;5.87;;;26.60;97.80;;;;;;4976776;28;20447;-49
2021/06/15 10:43:16;;;;;;;18.17;13.03;;;26.60;97.80;;;;;;4977094;28;20439;-49
2021/06/15 10:45:43;;;;;;;12.07;7.37;;;26.50;98.30;;;;;;4976446;28;20466;-50
2021/06/15 10:48:32;;;;;;;8.87;6.60;;;26.40;98.30;;;;;;4976245;28;20462;-52
2021/06/15 10:51:01;;;;;;;7.97;6.87;;;26.20;98.50;;;;;;4976335;28;20505;-54
2021/06/15 10:53:37;;;;;;;13.03;7.17;;;26.20;99.40;;;;;;4976314;28;20458;-55
2021/06/15 10:56:05;;;;;;;9.33;6.70;;;26.10;99.20;;;;;;4976457;28;20447;-51
2021/06/15 10:59:04;;;;;;;9.30;7.60;;;26.00;99.70;;;;;;4976110;28;20546;-52
2021/06/15 11:01:31;;;;;;;13.37;7.27;;;25.90;99.90;;;;;;4976239;28;20447;-53
2021/06/15 11:04:00;;;;;;;10.70;6.53;;;26.00;99.90;;;;;;4976229;28;20455;-54
2021/06/15 11:06:52;;;;;;;8.83;7.07;;;26.00;99.90;;;;;;4975903;28;20451;-53
2021/06/15 11:09:25;;;;;;;7.93;7.13;;;26.00;99.90;;;;;;4976177;28;20482;-53
2021/06/15 11:12:18;;;;;;;8.80;6.57;;;26.00;99.90;;;;;;4976155;28;20474;-55
2021/06/15 11:15:13;;;;;;;9.20;6.53;;;26.10;99.90;;;;;;4975973;28;20490;-55
2021/06/15 11:18:13;;;;;;;11.30;7.80;;;26.10;99.90;;;;;;4976074;28;20443;-53
2021/06/15 11:20:41;;;;;;;8.00;7.20;;;25.90;99.90;;;;;;4975965;28;20462;-51
2021/06/15 11:23:27;;;;;;;10.93;6.97;;;26.00;99.90;;;;;;4975792;28;20485;-57
2021/06/15 11:25:59;;;;;;;11.53;7.07;;;25.90;99.90;;;;;;4975625;28;20882;-50
2021/06/15 11:28:46;;;;;;;7.97;6.47;;;25.80;99.90;;;;;;4975925;28;20803;-49
2021/06/15 11:31:42;;;;;;;7.20;6.50;;;25.70;99.90;;;;;;4975630;28;20483;-53
2021/06/15 11:34:17;;;;;;;7.70;6.20;;;25.70;99.90;;;;;;4975483;28;20776;-54
2021/06/15 11:36:57;;;;;;;8.80;6.10;;;25.70;99.90;;;;;;4974888;28;20454;-53
2021/06/15 11:39:36;;;;;;;8.43;7.23;;;25.60;99.90;;;;;;4975400;28;20462;-48
2021/06/15 11:42:17;;;;;;;9.20;7.37;;;25.50;99.90;;;;;;4975612;28;20470;-52
2021/06/15 11:44:56;;;;;;;9.53;7.30;;;25.50;99.90;;;;;;4975351;28;20458;-49
2021/06/15 11:47:28;;;;;;;11.00;7.03;;;25.40;99.90;;;;;;4975509;28;20525;-52
2021/06/15 11:50:18;;;;;;;7.80;6.70;;;25.40;99.90;;;;;;4975542;28;20450;-50
2021/06/15 11:52:51;;;;;;;9.10;5.93;;;25.50;99.90;;;;;;4974933;28;20491;-54
2021/06/15 11:55:18;;;;;;;9.47;7.00;;;25.40;99.90;;;;;;4975361;28;20447;-52
2021/06/15 11:57:45;;;;;;;8.77;7.87;;;25.40;99.90;;;;;;4975360;28;20509;-51
2021/06/15 12:00:15;;;;;;;10.43;6.97;;;25.30;99.90;;;;;;4974825;28;20458;-49
2021/06/15 12:02:42;;;;;;;8.93;6.47;;;25.40;99.90;;;;;;4975051;28;20474;-50
2021/06/15 12:05:11;;;;;;;6.50;5.90;;;25.50;99.90;;;;;;4974945;28;20514;-57
2021/06/15 12:07:39;;;;;;;10.63;7.17;;;25.60;99.90;;;;;;4974858;28;20927;-49
2021/06/15 12:10:14;;;;;;;14.87;7.90;;;25.60;99.90;;;;;;4975133;28;20459;-50
2021/06/15 12:12:54;;;;;;;7.00;6.40;;;25.70;99.90;;;;;;4975008;28;20483;-54
2021/06/15 12:15:28;;;;;;;9.23;6.90;;;25.70;99.90;;;;;;4975249;28;20431;-53
2021/06/15 12:17:55;;;;;;;7.70;6.90;;;25.80;99.90;;;;;;4974812;28;20529;-55
2021/06/15 12:20:27;;;;;;;7.50;6.80;;;25.90;99.90;;;;;;4975001;28;20519;-51
2021/06/15 12:22:55;;;;;;;8.83;7.37;;;26.00;99.90;;;;;;4974798;28;20454;-53
2021/06/15 12:25:31;;;;;;;7.57;6.87;;;26.10;99.90;;;;;;4974980;28;20458;-54
2021/06/15 12:28:12;;;;;;;10.53;8.20;;;26.30;99.90;;;;;;4974807;28;20503;-54
2021/06/15 12:30:40;;;;;;;13.13;7.40;;;26.60;99.90;;;;;;4974206;28;20458;-53
2021/06/15 12:33:07;;;;;;;8.40;7.57;;;26.80;99.90;;;;;;4974481;28;20488;-49
2021/06/15 12:35:34;;;;;;;9.10;7.50;;;27.10;99.90;;;;;;4974867;28;20513;-51
2021/06/15 12:38:09;;;;;;;7.00;6.27;;;27.20;99.50;;;;;;4974732;28;20447;-55
2021/06/15 12:40:37;;;;;;;9.73;8.20;;;27.20;99.40;;;;;;4974781;28;20550;-54
2021/06/15 12:43:05;;;;;;;8.03;6.63;;;27.20;98.20;;;;;;4974490;28;20510;-51
2021/06/15 12:45:33;;;;;;;10.47;6.60;;;27.10;98.20;;;;;;4974694;28;21169;-53
2021/06/15 12:48:00;;;;;;;15.57;6.83;;;27.10;98.60;;;;;;4974678;28;20447;-47
2021/06/15 12:50:28;;;;;;;9.70;7.30;;;27.20;97.30;;;;;;4974385;28;20450;-50
2021/06/15 12:53:05;;;;;;;7.27;6.57;;;27.20;97.20;;;;;;4974947;28;20486;-54
2021/06/15 12:55:32;;;;;;;7.40;6.57;;;27.30;96.70;;;;;;4974351;28;20442;-55
2021/06/15 12:58:01;;;;;;;6.87;6.20;;;27.40;96.50;;;;;;4974600;28;20459;-52
2021/06/15 13:00:30;;;;;;;7.37;6.33;;;27.50;96.50;;;;;;4974826;28;20446;-51
2021/06/15 13:03:06;;;;;;;7.50;6.37;;;27.50;95.80;;;;;;4974313;28;20469;-54
2021/06/15 13:05:33;;;;;;;8.53;6.87;;;27.60;96.00;;;;;;4974461;28;20451;-50
2021/06/15 13:08:01;;;;;;;8.23;6.00;;;27.70;96.10;;;;;;4974260;28;20451;-50
2021/06/15 13:10:28;;;;;;;6.93;6.17;;;27.80;95.90;;;;;;4974497;28;20442;-54
2021/06/15 13:12:57;;;;;;;11.40;7.00;;;27.90;95.20;;;;;;4974424;28;20486;-50
2021/06/15 13:15:25;;;;;;;8.37;6.33;;;27.70;95.00;;;;;;4974343;28;20447;-53
2021/06/15 13:17:56;;;;;;;8.77;6.63;;;27.50;95.00;;;;;;4974419;28;20471;-53
2021/06/15 13:20:24;;;;;;;5.63;5.23;;;27.30;95.50;;;;;;4974128;28;20486;-50
2021/06/15 13:22:51;;;;;;;7.30;6.20;;;27.30;95.70;;;;;;4974465;28;20515;-51
2021/06/15 13:25:21;;;;;;;6.73;6.03;;;27.40;95.90;;;;;;4974475;28;20946;-49
2021/06/15 13:27:54;;;;;;;10.03;6.10;;;27.40;95.10;;;;;;4974284;28;20455;-51
2021/06/15 13:30:23;;;;;;;9.37;7.30;;;27.30;95.40;;;;;;4974412;28;20501;-51
2021/06/15 13:33:04;;;;;;;6.57;5.93;;;27.20;95.60;;;;;;4973908;28;20499;-54
2021/06/15 13:35:31;;;;;;;9.23;6.10;;;27.20;95.60;;;;;;4974240;28;20984;-52
2021/06/15 13:37:59;;;;;;;9.33;6.83;;;27.20;95.90;;;;;;4974598;28;20491;-54
2021/06/15 13:40:29;;;;;;;8.70;6.30;;;27.20;95.80;;;;;;4974267;28;20461;-54
2021/06/15 13:42:57;;;;;;;14.60;7.03;;;27.10;96.20;;;;;;4974610;28;20505;-56
2021/06/15 13:45:27;;;;;;;10.80;5.77;;;27.00;95.90;;;;;;4977503;28;20917;-54
2021/06/15 13:47:54;;;;;;;7.63;6.80;;;26.80;96.40;;;;;;4977641;28;20450;-51
2021/06/15 13:50:22;;;;;;;9.23;6.43;;;26.60;96.20;;;;;;4977395;28;20458;-50
2021/06/15 13:52:49;;;;;;;6.93;6.20;;;26.50;96.70;;;;;;4977114;28;20487;-53
2021/06/15 13:55:17;;;;;;;12.13;7.60;;;26.50;97.00;;;;;;4977372;28;20450;-53
2021/06/15 13:57:45;;;;;;;11.70;6.70;;;26.50;97.00;;;;;;4977273;28;21025;-50
2021/06/15 14:00:16;;;;;;;10.30;7.30;;;26.50;97.10;;;;;;4977343;28;20478;-52
2021/06/15 14:02:44;;;;;;;7.40;6.60;;;26.70;97.30;;;;;;4977478;28;20482;-52
2021/06/15 14:05:11;;;;;;;9.53;6.57;;;26.80;96.90;;;;;;4977323;28;20920;-52
2021/06/15 14:07:40;;;;;;;6.60;5.73;;;26.90;97.20;;;;;;4977349;28;20886;-50
2021/06/15 14:10:09;;;;;;;7.83;5.60;;;27.00;97.00;;;;;;4977061;28;20455;-48
2021/06/15 14:12:36;;;;;;;6.40;5.67;;;27.10;96.70;;;;;;4977463;28;20573;-56
2021/06/15 14:15:05;;;;;;;6.63;6.03;;;27.30;96.30;;;;;;4978998;28;20533;-54
2021/06/15 14:17:33;;;;;;;8.67;7.43;;;27.50;95.80;;;;;;4981303;28;20467;-59
2021/06/15 14:20:00;;;;;;;8.43;5.83;;;27.50;95.50;;;;;;4989203;28;20458;-56
2021/06/15 14:22:27;;;;;;;5.67;5.07;;;27.30;94.70;;;;;;4987717;28;20446;-56
2021/06/15 14:24:56;;;;;;;6.33;5.53;;;27.10;95.20;;;;;;4985727;28;20465;-57
2021/06/15 14:27:23;;;;;;;10.57;6.23;;;27.00;96.20;;;;;;4985821;28;20455;-55
2021/06/15 14:29:51;;;;;;;7.30;5.93;;;27.10;96.50;;;;;;4990131;28;20462;-51
2021/06/15 14:32:18;;;;;;;8.47;5.90;;;27.20;96.70;;;;;;4991711;28;20564;-54
2021/06/15 14:34:46;;;;;;;8.17;5.73;;;27.30;96.50;;;;;;4989423;28;20453;-57
2021/06/15 14:37:13;;;;;;;8.13;6.20;;;27.40;96.50;;;;;;4982923;28;20901;-55
2021/06/15 14:39:40;;;;;;;7.37;6.67;;;27.50;96.20;;;;;;4992730;28;20955;-59
2021/06/15 14:42:09;;;;;;;8.30;6.23;;;27.50;95.90;;;;;;4979205;28;20447;-58
2021/06/15 14:44:37;;;;;;;8.27;6.33;;;27.40;95.70;;;;;;4976858;28;20447;-58
2021/06/15 14:47:04;;;;;;;8.53;6.70;;;27.30;96.10;;;;;;4976360;28;20568;-55
2021/06/15 14:49:31;;;;;;;7.77;6.17;;;27.20;96.40;;;;;;4976229;28;20470;-55
2021/06/15 14:51:59;;;;;;;7.00;5.70;;;27.20;95.90;;;;;;4975826;28;20483;-57
2021/06/15 14:54:26;;;;;;;6.23;5.40;;;27.20;95.70;;;;;;4975446;28;20510;-57
2021/06/15 14:56:54;;;;;;;8.40;4.93;;;27.10;95.70;;;;;;4976400;28;20455;-60
2021/06/15 14:59:23;;;;;;;7.27;6.47;;;27.00;95.80;;;;;;4976711;28;20457;-53
2021/06/15 15:01:50;;;;;;;7.63;6.07;;;27.10;95.80;;;;;;4976616;28;20465;-55
2021/06/15 15:04:17;;;;;;;9.80;5.70;;;27.00;96.00;;;;;;4976344;28;20443;-56
2021/06/15 15:06:44;;;;;;;7.23;6.43;;;26.80;96.10;;;;;;4976006;28;20463;-56
2021/06/15 15:09:11;;;;;;;8.97;5.63;;;26.60;96.20;;;;;;4976227;28;20455;-57
2021/06/15 15:11:38;;;;;;;6.33;5.10;;;26.40;96.60;;;;;;4975528;28;20525;-55
2021/06/15 15:14:06;;;;;;;11.63;5.60;;;26.30;96.40;;;;;;4979352;28;21034;-57
2021/06/15 15:16:35;;;;;;;8.53;5.07;;;26.10;96.80;;;;;;4975927;28;20561;-52
2021/06/15 15:19:02;;;;;;;5.93;5.40;;;26.00;97.20;;;;;;4985652;28;20466;-49
2021/06/15 15:21:30;;;;;;;5.93;5.03;;;25.90;97.30;;;;;;4977228;28;20529;-55
2021/06/15 15:23:59;;;;;;;8.60;5.30;;;25.90;97.60;;;;;;4978346;28;20454;-56
2021/06/15 15:26:28;;;;;;;10.93;5.77;;;25.90;98.10;;;;;;4987077;28;20454;-56
2021/06/15 15:28:56;;;;;;;7.37;4.80;;;25.90;97.90;;;;;;4976151;28;20447;-56
2021/06/15 15:31:23;;;;;;;6.93;5.10;;;26.10;97.40;;;;;;4990263;28;20832;-54
2021/06/15 15:33:52;;;;;;;7.67;5.17;;;26.20;97.50;;;;;;4995341;28;20488;-56
2021/06/15 15:36:19;;;;;;;7.20;4.73;;;26.30;96.90;;;;;;4994383;28;20466;-56
2021/06/15 15:38:46;;;;;;;9.70;5.50;;;26.50;97.00;;;;;;4995541;28;20868;-57
2021/06/15 15:41:14;;;;;;;5.13;4.53;;;26.40;96.80;;;;;;4994970;28;20473;-55
2021/06/15 15:43:46;;;;;;;10.20;4.97;;;26.30;96.60;;;;;;4995344;28;20446;-57
2021/06/15 15:46:14;;;;;;;5.53;4.80;;;26.20;96.60;;;;;;4995235;28;20454;-55
2021/06/15 15:48:41;;;;;;;8.03;4.93;;;26.00;96.70;;;;;;4990716;28;20461;-55
2021/06/15 15:51:12;;;;;;;9.13;5.50;;;25.90;97.30;;;;;;4994862;28;20868;-57
2021/06/15 15:53:39;;;;;;;6.80;4.83;;;25.80;97.80;;;;;;4992060;28;20552;-57
2021/06/15 15:56:10;;;;;;;6.87;4.80;;;25.70;98.00;;;;;;4995150;28;20512;-55
2021/06/15 15:58:39;;;;;;;8.30;5.30;;;25.60;98.10;;;;;;4986252;28;20803;-57
2021/06/15 16:01:08;;;;;;;9.70;6.10;;;25.70;97.90;;;;;;4976100;28;20774;-57
2021/06/15 16:03:35;;;;;;;5.40;4.90;;;25.70;97.90;;;;;;4975755;28;20850;-56
2021/06/15 16:06:02;;;;;;;5.17;4.50;;;25.70;98.20;;;;;;4975206;28;20529;-55
2021/06/15 16:08:30;;;;;;;7.20;5.80;;;25.80;97.90;;;;;;4975277;28;20453;-56
2021/06/15 16:10:57;;;;;;;7.17;4.93;;;25.80;97.50;;;;;;4985240;28;20454;-54
2021/06/15 16:13:24;;;;;;;5.37;4.00;;;25.90;97.40;;;;;;4994892;28;20861;-55
2021/06/15 16:15:51;;;;;;;6.00;4.33;;;26.00;97.30;;;;;;4995031;28;20446;-57
2021/06/15 16:18:18;;;;;;;5.27;4.23;;;26.10;97.20;;;;;;4994910;28;20461;-57
2021/06/15 16:20:45;;;;;;;4.97;4.50;;;26.20;97.00;;;;;;4995162;28;20469;-55
2021/06/15 16:23:13;;;;;;;6.70;4.87;;;26.30;96.60;;;;;;4994706;28;20856;-53
2021/06/15 16:25:42;;;;;;;12.47;10.07;;;26.30;96.50;;;;;;4995029;28;20845;-56
2021/06/15 16:28:11;;;;;;;5.90;5.20;;;26.40;96.50;;;;;;4994999;28;20897;-55
2021/06/15 16:30:38;;;;;;;6.30;4.50;;;26.40;96.20;;;;;;4994933;28;20454;-55
2021/06/15 16:33:06;;;;;;;7.20;4.93;;;26.40;96.20;;;;;;4994708;28;20557;-54
2021/06/15 16:35:33;;;;;;;5.50;5.00;;;26.40;96.20;;;;;;4994750;28;20450;-58
2021/06/15 16:38:00;;;;;;;8.20;4.60;;;26.50;96.40;;;;;;4994818;28;20516;-57
2021/06/15 16:40:28;;;;;;;6.13;5.50;;;26.40;96.40;;;;;;4989924;28;20470;-57
2021/06/15 16:42:57;;;;;;;5.83;5.33;;;26.40;96.50;;;;;;4974563;28;20471;-57
2021/06/15 16:45:25;;;;;;;7.53;5.37;;;26.50;96.70;;;;;;4974979;28;20451;-55
2021/06/15 16:47:52;;;;;;;24.70;16.50;;;26.40;96.60;;;;;;4974925;28;20446;-53
2021/06/15 16:50:20;;;;;;;7.67;6.83;;;26.40;96.80;;;;;;4979528;28;20494;-55
2021/06/15 16:52:47;;;;;;;13.63;5.83;;;26.30;97.00;;;;;;4993552;28;20505;-57
2021/06/15 16:55:15;;;;;;;8.73;5.93;;;26.30;96.30;;;;;;4994139;28;20490;-56
2021/06/15 16:57:42;;;;;;;6.90;5.60;;;26.10;96.30;;;;;;4993725;28;20457;-56
2021/06/15 17:00:13;;;;;;;6.80;4.50;;;26.00;96.40;;;;;;4996156;28;20478;-55
2021/06/15 17:02:40;;;;;;;5.60;4.37;;;25.90;95.50;;;;;;4996068;28;20434;-56
2021/06/15 17:05:09;;;;;;;4.33;3.50;;;25.80;94.20;;;;;;4993744;28;20474;-54
2021/06/15 17:07:36;;;;;;;6.63;4.57;;;25.80;93.80;;;;;;4992768;28;20434;-56
2021/06/15 17:10:04;;;;;;;8.23;5.27;;;25.70;94.90;;;;;;4992276;28;20481;-57
2021/06/15 17:12:31;;;;;;;5.67;4.60;;;25.70;95.70;;;;;;4992742;28;20449;-56
2021/06/15 17:14:58;;;;;;;8.17;6.73;;;25.60;96.10;;;;;;4986392;28;20497;-56
2021/06/15 17:17:25;;;;;;;7.07;3.97;;;25.60;96.20;;;;;;4977793;28;20517;-56
2021/06/15 17:19:52;;;;;;;4.57;4.03;;;25.50;96.10;;;;;;4979200;28;20442;-52
2021/06/15 17:22:19;;;;;;;12.03;5.80;;;25.40;96.60;;;;;;4978834;28;20506;-53
2021/06/15 17:24:45;;;;;;;7.87;5.87;;;25.30;97.00;;;;;;4980158;28;20480;-57
2021/06/15 17:27:12;;;;;;;6.20;4.20;;;25.30;96.50;;;;;;4979343;28;20921;-56
2021/06/15 17:29:39;;;;;;;6.57;4.57;;;25.10;96.60;;;;;;4980024;28;20934;-56
2021/06/15 17:32:06;;;;;;;5.90;4.57;;;25.00;96.50;;;;;;4980395;28;20454;-54
2021/06/15 17:34:34;;;;;;;9.33;4.60;;;25.00;96.80;;;;;;4979937;28;20553;-56
2021/06/15 17:37:01;;;;;;;5.97;4.70;;;24.90;96.70;;;;;;4980043;28;20525;-56
2021/06/15 17:39:27;;;;;;;7.93;4.70;;;24.90;97.10;;;;;;4980561;28;20474;-51
2021/06/15 17:41:55;;;;;;;10.23;3.97;;;24.70;97.00;;;;;;4980254;28;20447;-52
2021/06/15 17:44:21;;;;;;;7.93;4.20;;;24.60;97.10;;;;;;4980334;28;20453;-57
2021/06/15 17:46:48;;;;;;;5.07;3.67;;;24.50;97.40;;;;;;4980135;28;20459;-54
2021/06/15 17:49:15;;;;;;;9.37;4.80;;;24.40;97.60;;;;;;4980220;28;20478;-55
2021/06/15 17:51:43;;;;;;;9.03;4.50;;;24.30;97.80;;;;;;4979919;28;20489;-56
2021/06/15 17:54:10;;;;;;;5.57;4.93;;;24.20;98.10;;;;;;4980335;28;20493;-51
2021/06/15 17:56:38;;;;;;;5.33;4.83;;;24.10;98.20;;;;;;4980129;28;20431;-57
2021/06/15 17:59:05;;;;;;;9.50;5.30;;;24.00;98.20;;;;;;4980476;28;20482;-49
2021/06/15 18:01:32;;;;;;;4.70;4.30;;;24.00;98.20;;;;;;4980186;28;20888;-57
2021/06/15 18:04:00;;;;;;;6.10;4.47;;;23.90;98.40;;;;;;4979733;28;20446;-54
2021/06/15 18:06:28;;;;;;;8.40;5.00;;;23.80;98.40;;;;;;4980151;28;20451;-57
2021/06/15 18:09:03;;;;;;;9.83;4.30;;;23.80;98.40;;;;;;4979748;28;20462;-56
2021/06/15 18:11:30;;;;;;;6.10;4.93;;;23.80;98.20;;;;;;4980215;28;20461;-55
2021/06/15 18:13:58;;;;;;;6.13;4.43;;;23.80;98.50;;;;;;4979893;28;20797;-56
2021/06/15 18:16:24;;;;;;;6.40;4.80;;;23.70;98.30;;;;;;4979832;28;20451;-56
2021/06/15 18:18:51;;;;;;;5.37;4.27;;;23.70;98.20;;;;;;4980159;28;20533;-58
2021/06/15 18:21:18;;;;;;;5.33;4.80;;;23.70;98.40;;;;;;4980162;28;20586;-55
2021/06/15 18:23:44;;;;;;;5.00;4.60;;;23.70;98.70;;;;;;4979745;28;20459;-57
2021/06/15 18:26:12;;;;;;;5.10;4.57;;;23.70;97.90;;;;;;4979664;28;20459;-54
2021/06/15 18:28:42;;;;;;;6.60;4.40;;;23.60;97.90;;;;;;4978889;28;20447;-53
2021/06/15 18:31:09;;;;;;;4.37;3.50;;;23.60;97.60;;;;;;4979006;28;20964;-57
2021/06/15 18:33:36;;;;;;;4.63;3.93;;;23.50;96.80;;;;;;4979559;28;20552;-55
2021/06/15 18:36:02;;;;;;;4.80;3.70;;;23.50;96.70;;;;;;4979307;28;20455;-56
2021/06/15 18:38:29;;;;;;;63.90;48.90;;;23.50;96.50;;;;;;4979524;28;20451;-56
2021/06/15 18:40:56;;;;;;;5.53;4.83;;;23.40;96.10;;;;;;4979637;28;20833;-57
2021/06/15 18:43:24;;;;;;;8.50;4.50;;;23.40;95.50;;;;;;4979359;28;20455;-56
2021/06/15 18:45:51;;;;;;;6.50;4.50;;;23.30;94.50;;;;;;4979228;28;20446;-56
2021/06/15 18:48:19;;;;;;;6.23;4.27;;;23.30;94.90;;;;;;4979358;28;20465;-56